createdAt,value
2019-06-19T00:00:13.263Z,8.60
2019-06-19T00:02:43.108Z,9.03
2019-06-19T00:05:12.895Z,9.43
2019-06-19T00:07:42.727Z,8.70
2019-06-19T00:10:12.596Z,8.50
2019-06-19T00:12:42.642Z,7.90
2019-06-19T00:15:13.211Z,8.80
2019-06-19T00:17:43.238Z,7.40
2019-06-19T00:20:13.220Z,7.67
2019-06-19T00:22:42.900Z,7.70
2019-06-19T00:25:14.243Z,7.07
2019-06-19T00:27:42.806Z,7.53
2019-06-19T00:30:12.728Z,7.40
2019-06-19T00:32:42.036Z,7.70
2019-06-19T00:35:11.541Z,7.97
2019-06-19T00:37:40.852Z,7.33
2019-06-19T00:40:17.137Z,8.90
2019-06-19T00:42:46.206Z,7.90
2019-06-19T00:45:15.336Z,8.53
2019-06-19T00:47:44.438Z,7.53
2019-06-19T00:50:13.604Z,7.93
2019-06-19T00:52:42.679Z,8.20
2019-06-19T00:55:17.353Z,7.80
2019-06-19T00:57:46.421Z,7.10
2019-06-19T01:00:15.516Z,7.13
2019-06-19T01:02:44.527Z,7.60
2019-06-19T01:05:13.525Z,7.40
2019-06-19T01:07:42.607Z,7.80
2019-06-19T01:10:11.812Z,7.13
2019-06-19T01:12:41.645Z,7.83
2019-06-19T01:15:11.670Z,7.43
2019-06-19T01:17:41.648Z,8.17
2019-06-19T01:20:10.904Z,8.20
2019-06-19T01:22:41.354Z,7.60
2019-06-19T01:25:11.302Z,8.03
2019-06-19T01:27:41.632Z,8.30
2019-06-19T01:30:14.621Z,8.80
2019-06-19T01:32:41.687Z,9.07
2019-06-19T01:35:12.099Z,8.90
2019-06-19T01:37:41.371Z,8.70
2019-06-19T01:40:11.483Z,8.40
2019-06-19T01:42:41.433Z,8.20
2019-06-19T01:45:11.310Z,9.33
2019-06-19T01:47:41.131Z,8.70
2019-06-19T01:50:11.419Z,8.40
2019-06-19T01:52:41.431Z,8.13
2019-06-19T01:55:11.838Z,8.53
2019-06-19T01:57:41.211Z,8.40
2019-06-19T02:00:29.028Z,9.00
2019-06-19T02:02:41.319Z,8.87
2019-06-19T02:05:11.645Z,8.43
2019-06-19T02:07:41.165Z,8.93
2019-06-19T02:10:10.835Z,9.60
2019-06-19T02:12:41.182Z,8.20
2019-06-19T02:15:10.905Z,8.80
2019-06-19T02:17:41.532Z,8.57
2019-06-19T02:20:10.892Z,10.10
2019-06-19T02:22:40.908Z,9.60
2019-06-19T02:25:10.676Z,8.80
2019-06-19T02:27:40.754Z,9.70
2019-06-19T02:30:13.132Z,8.83
2019-06-19T02:32:42.958Z,9.17
2019-06-19T02:35:12.396Z,10.27
2019-06-19T02:37:42.410Z,9.90
2019-06-19T02:40:11.519Z,9.70
2019-06-19T02:42:40.506Z,8.60
2019-06-19T02:45:09.564Z,8.93
2019-06-19T02:47:38.655Z,8.43
2019-06-19T02:50:07.880Z,10.03
2019-06-19T02:52:36.973Z,9.00
2019-06-19T02:55:05.964Z,8.70
2019-06-19T02:57:35.014Z,10.30
2019-06-19T03:00:03.975Z,10.30
2019-06-19T03:02:32.979Z,8.73
2019-06-19T03:05:02.079Z,9.20
2019-06-19T03:07:31.221Z,9.20
2019-06-19T03:10:00.319Z,9.63
2019-06-19T03:12:29.449Z,10.07
2019-06-19T03:14:58.497Z,10.07
2019-06-19T03:17:27.532Z,8.80
2019-06-19T03:19:56.694Z,8.87
2019-06-19T03:22:25.808Z,8.40
2019-06-19T03:24:54.759Z,9.33
2019-06-19T03:27:23.977Z,7.90
2019-06-19T03:29:53.163Z,9.77
2019-06-19T03:32:22.252Z,8.30
2019-06-19T03:34:51.328Z,7.40
2019-06-19T03:37:20.501Z,8.60
2019-06-19T03:39:49.595Z,8.80
2019-06-19T03:42:18.773Z,8.70
2019-06-19T03:44:47.840Z,9.60
2019-06-19T03:47:16.882Z,9.97
2019-06-19T03:49:46.003Z,9.70
2019-06-19T03:52:15.090Z,9.03
2019-06-19T03:54:44.251Z,9.13
2019-06-19T03:57:13.372Z,9.47
2019-06-19T03:59:42.451Z,8.80
2019-06-19T04:02:11.565Z,10.40
2019-06-19T04:04:40.680Z,9.53
2019-06-19T04:07:09.754Z,8.97
2019-06-19T04:09:38.854Z,9.60
2019-06-19T04:12:07.933Z,9.20
2019-06-19T04:14:37.115Z,8.90
2019-06-19T04:17:06.227Z,11.00
2019-06-19T04:19:35.244Z,9.20
2019-06-19T04:22:04.217Z,9.17
2019-06-19T04:24:33.392Z,9.73
2019-06-19T04:27:02.514Z,9.90
2019-06-19T04:29:33.104Z,9.03
2019-06-19T04:32:08.995Z,9.50
2019-06-19T04:34:32.880Z,9.17
2019-06-19T04:37:01.915Z,9.17
2019-06-19T04:39:31.052Z,8.80
2019-06-19T04:42:00.122Z,9.57
2019-06-19T04:44:48.246Z,9.33
2019-06-19T04:47:17.314Z,9.70
2019-06-19T04:49:46.517Z,9.10
2019-06-19T04:52:15.616Z,9.13
2019-06-19T04:54:44.701Z,8.80
2019-06-19T04:57:13.682Z,9.80
2019-06-19T04:59:42.840Z,9.37
2019-06-19T05:02:20.497Z,11.23
2019-06-19T05:04:42.657Z,10.27
2019-06-19T05:07:11.795Z,10.17
2019-06-19T05:09:40.989Z,9.67
2019-06-19T05:12:10.083Z,10.20
2019-06-19T05:14:39.163Z,10.70
2019-06-19T05:17:08.189Z,11.43
2019-06-19T05:19:37.487Z,10.13
2019-06-19T05:22:06.514Z,9.93
2019-06-19T05:24:35.584Z,9.90
2019-06-19T05:27:04.654Z,8.03
2019-06-19T05:29:33.639Z,8.30
2019-06-19T05:32:02.744Z,9.30
2019-06-19T05:34:31.852Z,7.60
2019-06-19T05:37:01.025Z,8.17
2019-06-19T05:39:30.177Z,8.30
2019-06-19T05:41:59.251Z,7.70
2019-06-19T05:44:28.348Z,7.80
2019-06-19T05:46:57.529Z,10.40
2019-06-19T05:49:26.598Z,8.30
2019-06-19T05:51:55.910Z,7.90
2019-06-19T05:54:25.102Z,7.30
2019-06-19T05:56:54.202Z,7.60
2019-06-19T05:59:23.181Z,8.57
2019-06-19T06:01:52.216Z,8.60
2019-06-19T06:04:21.306Z,7.37
2019-06-19T06:06:50.410Z,8.27
2019-06-19T06:09:19.515Z,7.37
2019-06-19T06:11:48.603Z,7.20
2019-06-19T06:14:17.626Z,5.97
2019-06-19T06:16:46.807Z,7.60
2019-06-19T06:19:15.938Z,6.80
2019-06-19T06:21:58.779Z,6.60
2019-06-19T06:24:27.907Z,6.60
2019-06-19T06:26:56.998Z,6.33
2019-06-19T06:29:26.089Z,7.27
2019-06-19T06:31:55.174Z,6.33
2019-06-19T06:34:24.653Z,6.63
2019-06-19T06:36:53.772Z,6.67
2019-06-19T06:39:22.787Z,6.70
2019-06-19T06:41:51.885Z,6.30
2019-06-19T06:44:20.991Z,6.90
2019-06-19T06:46:50.090Z,6.03
2019-06-19T06:49:19.175Z,6.73
2019-06-19T06:51:48.387Z,6.70
2019-06-19T06:54:17.441Z,5.60
2019-06-19T06:56:46.369Z,5.90
2019-06-19T06:59:15.456Z,5.83
2019-06-19T07:01:44.484Z,5.43
2019-06-19T07:04:13.639Z,4.93
2019-06-19T07:06:42.676Z,5.43
2019-06-19T07:09:11.694Z,5.07
2019-06-19T07:11:40.676Z,4.60
2019-06-19T07:14:09.817Z,4.70
2019-06-19T07:16:38.808Z,4.53
2019-06-19T07:19:08.018Z,4.87
2019-06-19T07:21:37.097Z,5.27
2019-06-19T07:24:06.236Z,4.50
2019-06-19T07:26:35.432Z,4.60
2019-06-19T07:29:04.534Z,4.40
2019-06-19T07:31:33.734Z,4.60
2019-06-19T07:34:02.796Z,5.10
2019-06-19T07:36:31.980Z,4.80
2019-06-19T07:39:01.054Z,4.33
2019-06-19T07:41:30.133Z,4.80
2019-06-19T07:43:59.160Z,4.50
2019-06-19T07:46:28.307Z,5.10
2019-06-19T07:48:57.341Z,4.90
2019-06-19T07:51:26.463Z,4.80
2019-06-19T07:53:55.554Z,4.43
2019-06-19T07:56:24.742Z,5.50
2019-06-19T07:58:53.771Z,5.20
2019-06-19T08:01:22.827Z,5.10
2019-06-19T08:03:57.837Z,4.90
2019-06-19T08:06:22.749Z,4.90
2019-06-19T08:08:51.618Z,5.37
2019-06-19T08:11:20.667Z,4.77
2019-06-19T08:13:49.762Z,5.00
2019-06-19T08:16:18.957Z,5.13
2019-06-19T08:18:48.165Z,4.83
2019-06-19T08:21:17.303Z,5.00
2019-06-19T08:23:46.332Z,4.43
2019-06-19T08:26:15.385Z,4.67
2019-06-19T08:28:44.395Z,4.60
2019-06-19T08:31:13.507Z,5.00
2019-06-19T08:33:42.620Z,4.93
2019-06-19T08:36:11.798Z,4.77
2019-06-19T08:38:40.861Z,3.97
2019-06-19T08:41:09.866Z,4.87
2019-06-19T08:43:38.859Z,4.10
2019-06-19T08:46:08.081Z,4.57
2019-06-19T08:48:37.301Z,4.17
2019-06-19T08:51:06.223Z,4.70
2019-06-19T08:53:35.313Z,4.47
2019-06-19T08:56:04.269Z,4.03
2019-06-19T08:58:34.169Z,4.60
2019-06-19T09:01:03.103Z,3.97
2019-06-19T09:03:32.205Z,4.20
2019-06-19T09:06:01.238Z,4.07
2019-06-19T09:08:30.258Z,4.33
2019-06-19T09:11:07.224Z,4.20
2019-06-19T09:13:36.309Z,3.50
2019-06-19T09:16:06.030Z,3.87
2019-06-19T09:18:34.974Z,4.73
2019-06-19T09:21:04.125Z,4.17
2019-06-19T09:23:33.247Z,4.50
2019-06-19T09:26:02.376Z,3.50
2019-06-19T09:28:31.447Z,3.97
2019-06-19T09:31:00.523Z,3.87
2019-06-19T09:33:29.614Z,3.73
2019-06-19T09:35:58.683Z,4.10
2019-06-19T09:38:27.650Z,3.60
2019-06-19T09:40:56.663Z,3.60
2019-06-19T09:43:25.803Z,3.40
2019-06-19T09:45:54.928Z,4.00
2019-06-19T09:48:24.101Z,3.93
2019-06-19T09:50:53.147Z,3.57
2019-06-19T09:53:22.323Z,4.17
2019-06-19T09:55:51.427Z,3.50
2019-06-19T09:58:20.517Z,3.90
2019-06-19T10:00:49.697Z,3.97
2019-06-19T10:03:32.841Z,3.67
2019-06-19T10:05:49.783Z,3.50
2019-06-19T10:08:18.939Z,3.60
2019-06-19T10:10:48.013Z,3.83
2019-06-19T10:13:17.143Z,3.97
2019-06-19T10:15:58.460Z,3.70
2019-06-19T10:18:17.124Z,3.70
2019-06-19T10:20:46.169Z,3.50
2019-06-19T10:23:15.246Z,3.30
2019-06-19T10:25:44.362Z,3.33
2019-06-19T10:28:13.600Z,3.70
2019-06-19T10:30:42.772Z,3.20
2019-06-19T10:33:12.043Z,3.63
2019-06-19T10:35:41.010Z,3.30
2019-06-19T10:38:10.111Z,3.40
2019-06-19T10:40:39.223Z,3.97
2019-06-19T10:43:08.355Z,3.50
2019-06-19T10:45:37.478Z,4.03
2019-06-19T10:48:06.643Z,3.07
2019-06-19T10:50:35.706Z,3.93
2019-06-19T10:53:04.708Z,3.33
2019-06-19T10:55:33.798Z,3.60
2019-06-19T10:58:02.854Z,3.33
2019-06-19T11:00:31.920Z,3.40
2019-06-19T11:03:00.912Z,3.50
2019-06-19T11:05:39.123Z,3.70
2019-06-19T11:08:01.370Z,3.73
2019-06-19T11:10:30.713Z,3.63
2019-06-19T11:13:00.015Z,3.60
2019-06-19T11:15:29.453Z,3.60
2019-06-19T11:18:00.083Z,3.77
2019-06-19T11:20:29.449Z,3.70
2019-06-19T11:22:58.805Z,4.10
2019-06-19T11:25:28.040Z,3.40
2019-06-19T11:27:59.759Z,3.90
2019-06-19T11:30:27.849Z,3.80
2019-06-19T11:32:56.933Z,3.50
2019-06-19T11:35:25.949Z,3.53
2019-06-19T11:37:55.030Z,3.60
2019-06-19T11:40:24.012Z,3.87
2019-06-19T11:42:53.012Z,3.50
2019-06-19T11:45:22.131Z,4.20
2019-06-19T11:47:51.245Z,3.20
2019-06-19T11:50:20.373Z,3.87
2019-06-19T11:52:49.459Z,3.57
2019-06-19T11:55:18.592Z,3.80
2019-06-19T11:57:47.719Z,3.40
2019-06-19T12:00:16.893Z,4.00
2019-06-19T12:02:46.170Z,4.00
2019-06-19T12:05:15.451Z,4.13
2019-06-19T12:07:44.446Z,4.50
2019-06-19T12:10:13.488Z,3.83
2019-06-19T12:12:42.514Z,4.03
2019-06-19T12:15:11.416Z,3.87
2019-06-19T12:17:40.573Z,4.07
2019-06-19T12:20:10.882Z,4.20
2019-06-19T12:22:39.998Z,4.10
2019-06-19T12:25:09.278Z,3.97
2019-06-19T12:27:38.386Z,4.20
2019-06-19T12:30:07.847Z,4.50
2019-06-19T12:32:37.006Z,4.33
2019-06-19T12:35:13.240Z,4.10
2019-06-19T12:37:42.459Z,4.23
2019-06-19T12:40:11.527Z,4.53
2019-06-19T12:42:40.586Z,4.27
2019-06-19T12:45:09.682Z,4.90
2019-06-19T12:47:38.641Z,4.37
2019-06-19T12:50:07.735Z,4.60
2019-06-19T12:52:36.732Z,3.57
2019-06-19T12:55:06.260Z,3.80
2019-06-19T12:57:35.307Z,3.83
2019-06-19T13:00:05.222Z,4.07
2019-06-19T13:02:34.322Z,4.50
2019-06-19T13:05:03.486Z,4.40
2019-06-19T13:07:32.641Z,4.63
2019-06-19T13:10:01.791Z,4.63
2019-06-19T13:12:30.988Z,4.67
2019-06-19T13:14:59.938Z,4.20
2019-06-19T13:17:28.986Z,4.17
2019-06-19T13:19:58.057Z,3.90
2019-06-19T13:22:27.141Z,4.07
2019-06-19T13:24:56.225Z,3.80
2019-06-19T13:27:25.274Z,4.30
2019-06-19T13:29:54.445Z,4.00
2019-06-19T13:32:23.604Z,3.40
2019-06-19T13:34:52.650Z,4.10
2019-06-19T13:37:21.772Z,3.87
2019-06-19T13:39:50.702Z,4.10
2019-06-19T13:42:19.655Z,3.90
2019-06-19T13:44:48.786Z,3.80
2019-06-19T13:47:17.940Z,3.90
2019-06-19T13:49:48.769Z,4.47
2019-06-19T13:52:18.234Z,4.63
2019-06-19T13:54:47.464Z,4.43
2019-06-19T13:57:20.768Z,4.60
2019-06-19T13:59:47.108Z,4.60
2019-06-19T14:02:16.127Z,4.50
2019-06-19T14:04:45.259Z,4.70
2019-06-19T14:07:20.008Z,4.60
2019-06-19T14:09:45.091Z,4.63
2019-06-19T14:12:14.137Z,4.20
2019-06-19T14:14:43.193Z,5.07
2019-06-19T14:17:12.384Z,4.27
2019-06-19T14:19:41.388Z,4.17
2019-06-19T14:22:10.451Z,5.20
2019-06-19T14:24:39.473Z,5.53
2019-06-19T14:27:08.591Z,5.00
2019-06-19T14:29:37.661Z,4.43
2019-06-19T14:32:06.673Z,4.57
2019-06-19T14:34:35.778Z,4.23
2019-06-19T14:37:04.818Z,4.30
2019-06-19T14:39:33.883Z,4.20
2019-06-19T14:42:02.970Z,4.10
2019-06-19T14:44:32.070Z,4.10
2019-06-19T14:47:01.153Z,4.30
2019-06-19T14:49:30.166Z,3.77
2019-06-19T14:51:59.195Z,4.07
2019-06-19T14:54:28.204Z,4.47
2019-06-19T14:56:57.355Z,3.90
2019-06-19T14:59:26.675Z,4.93
2019-06-19T15:01:55.721Z,4.80
2019-06-19T15:04:24.780Z,4.60
2019-06-19T15:06:53.865Z,4.90
2019-06-19T15:09:22.873Z,4.63
2019-06-19T15:11:53.211Z,3.60
2019-06-19T15:14:22.251Z,3.90
2019-06-19T15:16:51.347Z,4.50
2019-06-19T15:19:20.495Z,3.70
2019-06-19T15:21:49.547Z,3.70
2019-06-19T15:24:18.573Z,4.60
2019-06-19T15:26:47.491Z,4.10
2019-06-19T15:29:16.636Z,4.37
2019-06-19T15:31:45.570Z,3.77
2019-06-19T15:34:14.646Z,3.70
2019-06-19T15:36:43.631Z,4.37
2019-06-19T15:39:12.660Z,4.20
2019-06-19T15:41:41.766Z,4.20
2019-06-19T15:44:10.722Z,5.70
2019-06-19T15:46:39.820Z,4.23
2019-06-19T15:49:08.925Z,4.07
2019-06-19T15:51:38.009Z,4.30
2019-06-19T15:54:07.120Z,5.10
2019-06-19T15:56:37.279Z,4.60
2019-06-19T15:59:06.432Z,5.00
2019-06-19T16:01:35.533Z,4.57
2019-06-19T16:04:04.511Z,4.10
2019-06-19T16:06:33.511Z,3.97
2019-06-19T16:09:02.594Z,4.20
2019-06-19T16:11:32.060Z,4.60
2019-06-19T16:14:00.999Z,4.00
2019-06-19T16:16:30.008Z,4.30
2019-06-19T16:18:58.953Z,4.50
2019-06-19T16:21:28.570Z,3.80
2019-06-19T16:23:57.568Z,3.83
2019-06-19T16:26:27.145Z,3.90
2019-06-19T16:28:56.596Z,4.43
2019-06-19T16:31:26.059Z,4.17
2019-06-19T16:33:55.119Z,4.67
2019-06-19T16:36:28.389Z,5.37
2019-06-19T16:38:57.415Z,5.03
2019-06-19T16:41:26.448Z,4.00
2019-06-19T16:43:55.807Z,4.03
2019-06-19T16:46:24.879Z,4.70
2019-06-19T16:48:53.971Z,4.00
2019-06-19T16:51:23.014Z,4.40
2019-06-19T16:53:52.000Z,4.70
2019-06-19T16:56:21.182Z,4.53
2019-06-19T16:58:50.242Z,4.30
2019-06-19T17:01:19.385Z,4.30
2019-06-19T17:03:48.536Z,4.20
2019-06-19T17:06:17.550Z,4.90
2019-06-19T17:09:00.179Z,4.40
2019-06-19T17:11:18.356Z,4.67
2019-06-19T17:13:47.532Z,4.60
2019-06-19T17:16:16.687Z,4.67
2019-06-19T17:18:45.755Z,4.23
2019-06-19T17:21:14.761Z,5.00
2019-06-19T17:23:43.749Z,4.83
2019-06-19T17:26:12.751Z,4.80
2019-06-19T17:28:41.752Z,5.83
2019-06-19T17:31:10.875Z,4.57
2019-06-19T17:33:39.878Z,4.73
2019-06-19T17:36:08.868Z,4.70
2019-06-19T17:38:37.956Z,4.93
2019-06-19T17:41:06.992Z,4.80
2019-06-19T17:43:36.053Z,4.10
2019-06-19T17:46:04.943Z,5.50
2019-06-19T17:48:33.988Z,4.90
2019-06-19T17:51:03.026Z,5.40
2019-06-19T17:53:32.193Z,4.77
2019-06-19T17:56:01.189Z,5.10
2019-06-19T17:58:30.380Z,5.20
2019-06-19T18:00:59.372Z,4.93
2019-06-19T18:03:28.305Z,4.57
2019-06-19T18:05:57.329Z,4.80
2019-06-19T18:08:26.391Z,4.70
2019-06-19T18:10:55.310Z,4.70
2019-06-19T18:13:24.509Z,4.40
2019-06-19T18:15:53.533Z,4.93
2019-06-19T18:18:22.568Z,4.80
2019-06-19T18:20:51.644Z,4.70
2019-06-19T18:23:20.795Z,4.77
2019-06-19T18:25:49.839Z,4.50
2019-06-19T18:28:18.901Z,5.10
2019-06-19T18:30:48.023Z,4.50
2019-06-19T18:33:17.154Z,4.80
2019-06-19T18:35:46.243Z,4.43
2019-06-19T18:38:15.181Z,4.90
2019-06-19T18:40:44.399Z,4.73
2019-06-19T18:43:13.537Z,5.17
2019-06-19T18:45:42.558Z,4.63
2019-06-19T18:48:11.552Z,4.87
2019-06-19T18:50:40.658Z,4.73
2019-06-19T18:53:09.643Z,4.93
2019-06-19T18:55:38.630Z,4.77
2019-06-19T18:58:07.690Z,4.03
2019-06-19T19:00:36.729Z,5.07
2019-06-19T19:03:05.753Z,4.77
2019-06-19T19:05:34.880Z,5.20
2019-06-19T19:08:03.778Z,4.80
2019-06-19T19:10:32.855Z,5.80
2019-06-19T19:13:01.940Z,5.93
2019-06-19T19:15:30.950Z,5.40
2019-06-19T19:18:00.062Z,4.90
2019-06-19T19:20:29.035Z,5.73
2019-06-19T19:22:58.041Z,6.43
2019-06-19T19:25:26.968Z,5.23
2019-06-19T19:27:56.014Z,6.30
2019-06-19T19:30:25.055Z,4.87
2019-06-19T19:32:54.111Z,5.10
2019-06-19T19:35:23.194Z,6.63
2019-06-19T19:37:52.359Z,8.30
2019-06-19T19:40:29.832Z,7.30
2019-06-19T19:42:52.204Z,5.70
2019-06-19T19:45:21.248Z,5.97
2019-06-19T19:47:50.399Z,6.07
2019-06-19T19:50:19.537Z,8.67
2019-06-19T19:53:01.696Z,5.37
2019-06-19T19:55:19.262Z,5.90
2019-06-19T19:57:48.422Z,5.77
2019-06-19T20:00:25.489Z,5.90
2019-06-19T20:02:54.471Z,5.73
2019-06-19T20:05:23.497Z,6.20
2019-06-19T20:07:52.605Z,5.30
2019-06-19T20:10:21.924Z,6.80
2019-06-19T20:12:51.138Z,6.83
2019-06-19T20:15:20.247Z,5.67
2019-06-19T20:17:49.361Z,5.20
2019-06-19T20:20:18.561Z,6.03
2019-06-19T20:22:47.481Z,5.30
2019-06-19T20:25:16.478Z,6.03
2019-06-19T20:27:45.524Z,4.97
2019-06-19T20:30:14.666Z,5.10
2019-06-19T20:32:47.252Z,5.10
2019-06-19T20:35:14.375Z,7.10
2019-06-19T20:37:43.420Z,6.57
2019-06-19T20:40:12.347Z,5.60
2019-06-19T20:42:41.582Z,5.50
2019-06-19T20:45:11.379Z,5.20
2019-06-19T20:47:40.685Z,5.93
2019-06-19T20:50:09.702Z,5.30
2019-06-19T20:52:54.895Z,6.10
2019-06-19T20:55:09.515Z,6.17
2019-06-19T20:57:38.507Z,5.40
2019-06-19T21:00:08.736Z,5.67
2019-06-19T21:02:37.888Z,5.07
2019-06-19T21:05:07.440Z,7.70
2019-06-19T21:07:36.552Z,8.80
2019-06-19T21:10:05.927Z,8.10
2019-06-19T21:12:34.970Z,11.00
2019-06-19T21:15:04.696Z,11.57
2019-06-19T21:17:33.703Z,10.20
2019-06-19T21:20:02.815Z,14.90
2019-06-19T21:22:32.012Z,11.37
2019-06-19T21:25:01.273Z,10.03
2019-06-19T21:27:30.270Z,6.97
2019-06-19T21:29:59.588Z,8.73
2019-06-19T21:32:28.610Z,7.27
2019-06-19T21:34:58.110Z,6.93
2019-06-19T21:37:27.264Z,4.90
2019-06-19T21:39:56.269Z,5.80
2019-06-19T21:42:25.400Z,5.53
2019-06-19T21:44:54.428Z,6.20
2019-06-19T21:47:23.593Z,6.20
2019-06-19T21:49:52.551Z,5.73
2019-06-19T21:52:27.539Z,5.80
2019-06-19T21:54:52.262Z,6.40
2019-06-19T21:57:21.387Z,7.80
2019-06-19T21:59:50.445Z,10.00
2019-06-19T22:02:19.868Z,8.33
2019-06-19T22:04:48.890Z,7.33
2019-06-19T22:07:18.057Z,7.33
2019-06-19T22:09:47.052Z,8.80
2019-06-19T22:12:16.095Z,7.77
2019-06-19T22:14:45.143Z,6.80
2019-06-19T22:17:14.264Z,6.57
2019-06-19T22:19:43.366Z,5.20
2019-06-19T22:22:12.499Z,5.87
2019-06-19T22:24:41.637Z,5.70
2019-06-19T22:27:10.649Z,5.97
2019-06-19T22:29:39.711Z,5.60
2019-06-19T22:32:08.728Z,5.97
2019-06-19T22:34:37.823Z,5.70
2019-06-19T22:37:06.891Z,4.77
2019-06-19T22:39:35.880Z,5.53
2019-06-19T22:42:11.539Z,5.60
2019-06-19T22:44:35.765Z,5.00
2019-06-19T22:47:04.918Z,5.87
2019-06-19T22:49:33.909Z,5.13
2019-06-19T22:52:02.981Z,5.33
2019-06-19T22:54:31.816Z,5.50
2019-06-19T22:57:00.890Z,6.30
2019-06-19T22:59:29.874Z,5.30
2019-06-19T23:02:14.678Z,5.33
2019-06-19T23:04:43.851Z,4.97
2019-06-19T23:07:12.958Z,4.70
2019-06-19T23:09:42.154Z,5.00
2019-06-19T23:12:26.508Z,4.73
2019-06-19T23:14:42.087Z,5.47
2019-06-19T23:17:11.065Z,5.00
2019-06-19T23:19:40.285Z,4.73
2019-06-19T23:22:09.336Z,5.30
2019-06-19T23:24:38.413Z,5.50
2019-06-19T23:27:07.470Z,6.23
2019-06-19T23:29:36.568Z,6.10
2019-06-19T23:32:05.540Z,6.00
2019-06-19T23:34:34.731Z,5.87
2019-06-19T23:37:03.834Z,5.17
2019-06-19T23:39:32.816Z,4.80
2019-06-19T23:42:02.065Z,5.07
2019-06-19T23:44:31.010Z,4.90
2019-06-19T23:47:00.132Z,4.57
2019-06-19T23:49:29.178Z,5.20
2019-06-19T23:51:58.172Z,4.83
2019-06-19T23:54:27.161Z,5.03
2019-06-19T23:56:56.160Z,5.10
2019-06-19T23:59:25.277Z,5.20
